»·PEaware :: N219KC KRNO-KLAX

N219KC :: KRNO-KLAX

FLIGHT INFORMATION

Flight Status: Arrived
Operator: Privately registered:
United States
More flights under this callsign
Pilot: Eric W. (14379)
Aircraft: Unknown
(E35L)
More flights by this aircraft type
Origin: KRNO Reno/Tahoe Intl
United States
Destination: KLAX Los Angeles Intl
United States
More flights between these airports :: More routes between these airports
Route: +ZEFFR6 DARBI HYP AVE SADDE8
File this flight plan on PilotEdge
Remarks:
Altitude:
(Current/Filed)
33,000ft
Speed:
(Current/Filed)
450kts
Departed: 25-Oct-19 04:27 PM
Arrived: 25-Oct-19 05:35 PM
Distance/Time
Traveled:
340nm/1:08
Distance/Time
To Go:
Arrived

Flight Plot

Page will automatically refresh every two minutes.

Flight plan parsing failed; only flown route is shown


Map Options




Map Legend


Flown Route
Filed Route
Departure Airport
Arrival Airport
Navaid (VOR, NDB)
Fix

Horizontal Profiles

Position Reports

Time Latitude Longitude Heading Altitude Ground
Speed
25-Oct-19 15:33 39.499390 -119.764770 269 4405ft 0kts
25-Oct-19 15:34 39.499390 -119.764770 269 4405ft 0kts
25-Oct-19 15:35 39.499390 -119.764770 269 4405ft 0kts
25-Oct-19 15:36 39.499390 -119.764770 269 4405ft 0kts
25-Oct-19 15:37 39.499390 -119.764770 269 4405ft 0kts
25-Oct-19 15:39 39.499390 -119.764770 269 4405ft 0kts
25-Oct-19 15:40 39.499390 -119.764770 269 4405ft 0kts
25-Oct-19 15:41 39.499390 -119.764770 269 4405ft 0kts
25-Oct-19 15:42 39.499390 -119.764770 269 4405ft 0kts
25-Oct-19 15:43 39.499390 -119.764770 269 4405ft 0kts
25-Oct-19 15:44 39.499390 -119.764770 269 4405ft 0kts
25-Oct-19 15:45 39.499390 -119.764770 269 4405ft 0kts
25-Oct-19 15:46 39.499390 -119.764770 269 4405ft 0kts
25-Oct-19 15:47 39.499390 -119.764770 269 4405ft 0kts
25-Oct-19 15:48 39.499390 -119.764770 269 4405ft 0kts
25-Oct-19 15:49 39.499390 -119.764770 269 4405ft 0kts
25-Oct-19 15:50 39.499390 -119.764770 269 4405ft 0kts
25-Oct-19 15:51 39.499390 -119.764770 269 4405ft 0kts
25-Oct-19 15:52 39.499390 -119.764770 269 4405ft 0kts
25-Oct-19 15:53 39.499390 -119.764770 269 4405ft 0kts
25-Oct-19 15:54 39.499390 -119.764770 269 4405ft 0kts
25-Oct-19 15:55 39.499390 -119.764770 269 4405ft 0kts
25-Oct-19 15:56 39.499390 -119.764770 269 4405ft 0kts
25-Oct-19 15:57 39.499390 -119.764770 269 4405ft 0kts
25-Oct-19 15:57 39.499390 -119.764770 269 4405ft 0kts
25-Oct-19 15:59 39.499390 -119.764770 269 4405ft 0kts
25-Oct-19 16:00 39.499390 -119.764770 269 4405ft 0kts
25-Oct-19 16:00 39.499390 -119.764770 269 4405ft 0kts
25-Oct-19 16:02 39.499390 -119.764770 269 4405ft 0kts
25-Oct-19 16:03 39.499390 -119.764770 269 4405ft 0kts
25-Oct-19 16:03 39.499390 -119.764770 269 4405ft 0kts
25-Oct-19 16:04 39.499390 -119.764770 269 4405ft 0kts
25-Oct-19 16:06 39.499390 -119.764770 269 4405ft 0kts
25-Oct-19 16:06 39.499390 -119.764770 269 4405ft 0kts
25-Oct-19 16:07 39.499390 -119.764770 269 4405ft 0kts
25-Oct-19 16:08 39.499390 -119.764770 269 4405ft 0kts
25-Oct-19 16:09 39.499390 -119.764770 269 4405ft 0kts
25-Oct-19 16:10 39.499390 -119.764770 269 4405ft 0kts
25-Oct-19 16:11 39.499390 -119.764770 269 4405ft 0kts
25-Oct-19 16:12 39.499390 -119.764770 269 4405ft 0kts
25-Oct-19 16:13 39.499390 -119.764770 269 4405ft 0kts
25-Oct-19 16:14 39.499390 -119.764770 269 4405ft 0kts
25-Oct-19 16:15 39.499390 -119.764770 269 4405ft 0kts
25-Oct-19 16:16 39.499390 -119.764770 269 4405ft 0kts
25-Oct-19 16:17 39.499390 -119.764770 269 4405ft 0kts
25-Oct-19 16:18 39.499390 -119.764770 269 4405ft 0kts
25-Oct-19 16:19 39.499510 -119.765143 349 4405ft 5kts
25-Oct-19 16:20 39.501497 -119.765684 358 4406ft 8kts
25-Oct-19 16:21 39.504406 -119.765671 359 4406ft 12kts
25-Oct-19 16:22 39.507827 -119.765678 359 4410ft 12kts
25-Oct-19 16:23 39.511149 -119.765139 0 4413ft 12kts
25-Oct-19 16:24 39.513678 -119.765406 300 4417ft 2kts
25-Oct-19 16:25 39.513728 -119.767908 270 4417ft 13kts
25-Oct-19 16:26 39.508391 -119.769268 179 4412ft 105kts
25-Oct-19 16:27 39.453239 -119.769729 177 6538ft 235kts
25-Oct-19 16:28 39.383597 -119.769509 180 8693ft 258kts
25-Oct-19 16:29 39.308688 -119.769281 179 11045ft 284kts
25-Oct-19 16:30 39.225355 -119.766144 180 13602ft 323kts
25-Oct-19 16:31 39.127479 -119.762458 180 16410ft 381kts
25-Oct-19 16:32 39.015931 -119.758270 180 19497ft 418kts
25-Oct-19 16:33 38.895393 -119.753757 180 22600ft 453kts
25-Oct-19 16:34 38.772554 -119.749136 180 25462ft 478kts
25-Oct-19 16:35 38.637889 -119.744103 180 28500ft 488kts
25-Oct-19 16:36 38.504176 -119.739154 180 31415ft 471kts
25-Oct-19 16:37 38.374911 -119.734385 180 33322ft 468kts
25-Oct-19 16:38 38.250391 -119.762645 208 33342ft 456kts
25-Oct-19 16:39 38.137684 -119.832982 208 33310ft 456kts
25-Oct-19 16:40 38.023796 -119.904195 208 33199ft 456kts
25-Oct-19 16:41 37.910059 -119.975048 208 33131ft 456kts
25-Oct-19 16:42 37.799856 -120.043519 208 33308ft 456kts
25-Oct-19 16:43 37.685759 -120.114117 208 33271ft 455kts
25-Oct-19 16:44 37.572453 -120.184001 208 33079ft 456kts
25-Oct-19 16:45 37.458081 -120.254305 208 33074ft 457kts
25-Oct-19 16:46 37.344482 -120.323898 208 33074ft 457kts
25-Oct-19 16:47 37.228881 -120.390809 195 33057ft 460kts
25-Oct-19 16:48 37.101370 -120.367952 169 33081ft 466kts
25-Oct-19 16:49 36.976371 -120.333902 169 33084ft 466kts
25-Oct-19 16:50 36.857547 -120.301630 168 33087ft 466kts
25-Oct-19 16:51 36.731649 -120.267552 168 33090ft 465kts
25-Oct-19 16:52 36.604601 -120.233284 168 33090ft 465kts
25-Oct-19 16:53 36.477730 -120.199175 168 33083ft 466kts
25-Oct-19 16:54 36.351068 -120.165235 168 33082ft 466kts
25-Oct-19 16:55 36.224260 -120.131370 168 33082ft 465kts
25-Oct-19 16:56 36.101805 -120.098773 168 33083ft 465kts
25-Oct-19 16:57 35.978009 -120.065929 168 33203ft 464kts
25-Oct-19 16:58 35.856076 -120.033675 168 33193ft 464kts
25-Oct-19 16:59 35.733878 -120.001456 168 33076ft 465kts
25-Oct-19 17:00 35.613171 -119.948841 145 33081ft 467kts
25-Oct-19 17:01 35.506914 -119.857380 144 33073ft 466kts
25-Oct-19 17:02 35.401075 -119.766130 144 33073ft 466kts
25-Oct-19 17:03 35.294537 -119.674551 144 31756ft 471kts
25-Oct-19 17:04 35.189383 -119.584505 145 29288ft 460kts
25-Oct-19 17:05 35.086330 -119.496524 144 26797ft 447kts
25-Oct-19 17:06 34.988124 -119.412924 144 24394ft 446kts
25-Oct-19 17:07 34.889867 -119.329510 145 24060ft 445kts
25-Oct-19 17:08 34.794203 -119.248566 145 24042ft 442kts
25-Oct-19 17:09 34.707910 -119.175736 145 23897ft 444kts
25-Oct-19 17:10 34.621565 -119.103096 144 21661ft 424kts
25-Oct-19 17:11 34.526659 -119.023431 144 19183ft 416kts
25-Oct-19 17:12 34.432881 -118.944900 143 16661ft 399kts
25-Oct-19 17:13 34.340647 -118.875963 161 14665ft 392kts
25-Oct-19 17:14 34.238934 -118.837938 163 12752ft 371kts
25-Oct-19 17:15 34.152624 -118.806247 163 12004ft 318kts
25-Oct-19 17:16 34.068933 -118.775596 162 10284ft 300kts
25-Oct-19 17:17 34.033742 -118.706525 94 10004ft 256kts
25-Oct-19 17:18 34.026354 -118.628069 94 8746ft 266kts
25-Oct-19 17:19 34.019434 -118.554153 94 7418ft 251kts
25-Oct-19 17:20 34.014606 -118.502910 95 7000ft 237kts
25-Oct-19 17:21 34.012013 -118.443317 82 6844ft 227kts
25-Oct-19 17:22 34.018095 -118.382913 81 5577ft 213kts
25-Oct-19 17:23 34.022818 -118.336785 82 4960ft 202kts
25-Oct-19 17:24 34.026740 -118.299540 82 4147ft 209kts
25-Oct-19 17:25 34.031641 -118.254589 82 3112ft 214kts
25-Oct-19 17:26 34.038026 -118.196785 82 3004ft 202kts
25-Oct-19 17:27 34.015912 -118.159241 183 3039ft 207kts
25-Oct-19 17:28 33.966856 -118.179938 231 3081ft 187kts
25-Oct-19 17:29 33.952600 -118.233508 263 2573ft 182kts
25-Oct-19 17:30 33.946835 -118.290134 263 1657ft 141kts
25-Oct-19 17:31 33.942480 -118.332111 266 838ft 125kts
25-Oct-19 17:32 33.939934 -118.357604 263 535ft 117kts
25-Oct-19 17:33 33.936858 -118.387439 263 108ft 107kts
25-Oct-19 17:34 33.934927 -118.401834 236 122ft 15kts
25-Oct-19 17:35 33.934453 -118.398254 131 116ft 6kts
25-Oct-19 17:36 33.932730 -118.398282 260 117ft 4kts
25-Oct-19 17:37 33.932709 -118.398454 262 117ft 0kts
25-Oct-19 17:38 33.932709 -118.398454 262 117ft 0kts
25-Oct-19 17:39 33.932709 -118.398454 262 117ft 0kts
25-Oct-19 17:40 33.932709 -118.398454 262 117ft 0kts
25-Oct-19 17:41 33.932709 -118.398454 262 117ft 0kts
25-Oct-19 17:42 33.932709 -118.398454 262 117ft 0kts
25-Oct-19 17:43 33.932709 -118.398454 262 117ft 0kts
25-Oct-19 17:44 33.932709 -118.398454 262 117ft 0kts
25-Oct-19 17:45 33.932709 -118.398454 262 117ft 0kts

Navigation Log

Ident Type
Flight plan parsing failed, navigation log unavailable